createdAt,value
2023-03-06T00:08:55.766Z,3.40
2023-03-06T00:19:34.232Z,2.35
2023-03-06T00:41:55.341Z,2.95
2023-03-06T00:52:23.418Z,3.22
2023-03-06T01:02:46.538Z,2.75
2023-03-06T01:13:08.721Z,2.72
2023-03-06T01:23:32.083Z,3.70
2023-03-06T01:33:54.169Z,3.75
2023-03-06T01:44:17.319Z,3.83
2023-03-06T01:54:43.351Z,4.32
2023-03-06T02:05:08.936Z,4.28
2023-03-06T02:15:31.348Z,4.00
2023-03-06T02:25:55.114Z,3.50
2023-03-06T02:36:17.596Z,4.88
2023-03-06T02:46:40.994Z,4.88
2023-03-06T02:57:02.578Z,4.35
2023-03-06T03:07:27.165Z,4.75
2023-03-06T03:17:49.057Z,4.95
2023-03-06T03:28:11.978Z,4.97
2023-03-06T03:38:35.403Z,3.20
2023-03-06T03:48:58.407Z,3.05
2023-03-06T03:59:21.480Z,3.42
2023-03-06T04:09:56.548Z,2.65
2023-03-06T04:20:21.134Z,2.63
2023-03-06T04:30:44.956Z,4.13
2023-03-06T04:41:07.085Z,2.92
2023-03-06T04:51:30.580Z,2.38
2023-03-06T05:01:52.389Z,1.73
2023-03-06T05:12:16.471Z,2.20
2023-03-06T05:22:39.339Z,2.00
2023-03-06T05:33:02.502Z,2.50
2023-03-06T05:43:24.237Z,2.53
2023-03-06T05:53:47.155Z,2.38
2023-03-06T06:04:08.961Z,2.47
2023-03-06T06:14:33.864Z,2.30
2023-03-06T06:24:55.567Z,2.15
2023-03-06T06:35:19.626Z,2.95
2023-03-06T06:45:42.835Z,1.50
2023-03-06T06:56:06.597Z,3.00
2023-03-06T07:06:27.980Z,2.47
2023-03-06T07:16:51.057Z,1.95
2023-03-06T07:27:12.531Z,2.60
2023-03-06T07:37:35.545Z,3.00
2023-03-06T07:47:57.493Z,1.90
2023-03-06T07:58:20.450Z,2.35
2023-03-06T08:08:44.441Z,1.80
2023-03-06T08:19:07.400Z,2.55
2023-03-06T08:29:30.637Z,2.60
2023-03-06T08:39:54.924Z,2.92
2023-03-06T08:50:16.857Z,1.80
2023-03-06T09:00:40.101Z,1.70
2023-03-06T09:11:01.729Z,1.90
2023-03-06T09:21:25.092Z,4.28
2023-03-06T09:31:46.960Z,5.10
2023-03-06T09:42:15.102Z,3.95
2023-03-06T09:52:44.578Z,3.63
2023-03-06T10:03:18.892Z,1.92
2023-03-06T10:13:44.811Z,2.88
2023-03-06T10:24:21.122Z,2.80
2023-03-06T10:34:44.114Z,3.03
2023-03-06T10:45:13.684Z,2.15
2023-03-06T10:55:36.606Z,1.80
2023-03-06T11:06:05.245Z,2.03
2023-03-06T11:16:30.347Z,1.92
2023-03-06T11:26:57.252Z,1.20
2023-03-06T11:37:28.784Z,0.97
2023-03-06T11:48:00.065Z,1.33
2023-03-06T11:58:58.174Z,1.30
2023-03-06T12:09:40.413Z,1.20
2023-03-06T12:20:23.924Z,2.20
2023-03-06T12:31:03.144Z,0.95
2023-03-06T12:41:35.984Z,1.40
2023-03-06T12:52:01.875Z,1.50
2023-03-06T13:02:52.809Z,1.20
2023-03-06T13:13:33.360Z,1.65
2023-03-06T13:24:05.628Z,1.73
2023-03-06T13:34:36.646Z,1.20
2023-03-06T13:45:06.740Z,1.38
2023-03-06T13:55:37.185Z,1.38
2023-03-06T14:05:59.314Z,1.67
2023-03-06T14:16:24.823Z,1.20
2023-03-06T14:26:49.613Z,1.60
2023-03-06T14:37:21.962Z,2.17
2023-03-06T14:47:44.040Z,1.52
2023-03-06T14:58:12.908Z,1.55
2023-03-06T15:08:39.136Z,1.40
2023-03-06T15:19:03.991Z,1.50
2023-03-06T15:29:25.885Z,1.27
2023-03-06T15:40:06.491Z,2.22
2023-03-06T15:50:30.206Z,1.58
2023-03-06T16:00:53.453Z,1.58
2023-03-06T16:11:17.557Z,1.50
2023-03-06T16:21:40.497Z,1.52
2023-03-06T16:32:02.655Z,1.42
2023-03-06T16:42:25.353Z,1.40
2023-03-06T16:53:04.014Z,1.60
2023-03-06T17:03:28.601Z,1.90
2023-03-06T17:13:55.187Z,1.90
2023-03-06T17:24:20.852Z,2.90
2023-03-06T17:34:43.826Z,1.88
2023-03-06T17:45:11.115Z,2.35
2023-03-06T17:55:32.993Z,2.08
2023-03-06T18:06:49.057Z,2.50
2023-03-06T18:17:16.104Z,2.25
2023-03-06T18:27:39.781Z,2.17
2023-03-06T18:38:05.047Z,2.72
2023-03-06T18:48:31.832Z,1.83
2023-03-06T18:58:57.343Z,2.90
2023-03-06T19:32:27.127Z,2.53
2023-03-06T19:42:49.923Z,3.78
2023-03-06T19:53:15.973Z,3.90
2023-03-06T20:03:46.120Z,2.87
2023-03-06T20:14:33.365Z,6.10
2023-03-06T20:25:10.779Z,3.85
2023-03-06T20:36:05.704Z,5.03
2023-03-06T20:46:52.098Z,4.05
2023-03-06T20:57:15.512Z,3.40
2023-03-06T21:07:37.307Z,3.38
2023-03-06T21:18:01.210Z,5.15
2023-03-06T21:28:44.049Z,3.40
2023-03-06T21:39:08.471Z,3.33
2023-03-06T21:49:30.696Z,4.60
2023-03-06T21:59:54.076Z,4.25
2023-03-06T22:10:15.962Z,3.15
2023-03-06T22:20:40.438Z,4.75
2023-03-06T22:31:07.024Z,4.57
2023-03-06T22:41:31.468Z,4.30
2023-03-06T22:51:53.122Z,3.28
2023-03-06T23:02:16.776Z,6.80
2023-03-06T23:12:41.532Z,2.42
2023-03-06T23:23:23.851Z,4.90
2023-03-06T23:33:45.651Z,2.92
2023-03-06T23:44:08.805Z,3.15
2023-03-06T23:54:30.625Z,4.47
